createdAt,value
2018-06-30T03:01:04.692Z,80.00
2018-06-30T03:02:03.302Z,92.00
2018-06-30T03:03:03.315Z,104.00
2018-06-30T03:04:03.535Z,112.00
2018-06-30T03:05:03.695Z,124.00
2018-06-30T03:06:03.807Z,136.00
2018-06-30T03:07:03.920Z,148.00
2018-06-30T03:08:04.135Z,164.00
2018-06-30T03:09:04.294Z,176.00
2018-06-30T03:10:04.538Z,192.00
2018-06-30T03:11:04.804Z,204.00
2018-06-30T03:12:04.856Z,224.00
2018-06-30T03:13:05.064Z,244.00
2018-06-30T03:14:05.201Z,256.00
2018-06-30T03:15:05.388Z,276.00
2018-06-30T03:16:05.596Z,300.00
2018-06-30T03:17:05.705Z,316.00
2018-06-30T03:18:05.918Z,340.00
2018-06-30T03:19:05.987Z,360.00
2018-06-30T03:20:06.265Z,384.00
2018-06-30T03:21:06.360Z,404.00
2018-06-30T03:22:06.556Z,428.00
2018-06-30T03:23:06.690Z,452.00
2018-06-30T03:24:06.927Z,476.00
2018-06-30T03:25:07.092Z,496.00
2018-06-30T03:26:07.226Z,524.00
2018-06-30T03:27:07.428Z,548.00
2018-06-30T03:28:07.570Z,572.00
2018-06-30T03:29:07.773Z,600.00
2018-06-30T03:30:07.897Z,628.00
2018-06-30T03:31:08.085Z,652.00
2018-06-30T03:32:08.290Z,680.00
2018-06-30T03:33:08.392Z,708.00
2018-06-30T03:34:08.624Z,732.00
2018-06-30T03:35:08.804Z,760.00
2018-06-30T03:36:09.003Z,784.00
2018-06-30T03:37:09.163Z,812.00
2018-06-30T03:38:09.307Z,840.00
2018-06-30T03:39:09.469Z,868.00
2018-06-30T03:40:09.653Z,896.00
2018-06-30T03:41:09.791Z,920.00
2018-06-30T03:42:09.981Z,948.00
2018-06-30T03:43:10.117Z,976.00
2018-06-30T03:44:10.387Z,1004.00
2018-06-30T03:45:10.493Z,1032.00
2018-06-30T03:46:10.754Z,1056.00
2018-06-30T03:47:10.847Z,1084.00
2018-06-30T03:48:10.998Z,1112.00
2018-06-30T03:49:11.128Z,1136.00
2018-06-30T03:50:11.334Z,1168.00
2018-06-30T03:51:11.533Z,1192.00
2018-06-30T03:52:11.636Z,1216.00
2018-06-30T03:53:11.952Z,1240.00
2018-06-30T03:54:12.070Z,1268.00
2018-06-30T03:55:12.224Z,1292.00
2018-06-30T03:56:12.363Z,1316.00
2018-06-30T03:57:12.576Z,1340.00
2018-06-30T03:58:12.695Z,1364.00
2018-06-30T03:59:12.802Z,1384.00
2018-06-30T04:00:12.995Z,1408.00
2018-06-30T04:01:13.109Z,1432.00
2018-06-30T04:02:13.294Z,1452.00
2018-06-30T04:03:13.432Z,1476.00
2018-06-30T04:04:13.685Z,1500.00
2018-06-30T04:05:13.904Z,1524.00
2018-06-30T04:06:14.039Z,1548.00
2018-06-30T04:07:14.164Z,1564.00
2018-06-30T04:08:14.376Z,1588.00
2018-06-30T04:09:14.514Z,1608.00
2018-06-30T04:10:14.622Z,1624.00
2018-06-30T04:11:14.886Z,1648.00
2018-06-30T04:12:15.025Z,1668.00
2018-06-30T04:13:15.197Z,1684.00
2018-06-30T04:14:15.352Z,1708.00
2018-06-30T04:15:15.563Z,1724.00
2018-06-30T04:16:15.688Z,1748.00
2018-06-30T04:17:15.872Z,1764.00
2018-06-30T04:18:16.029Z,1784.00
2018-06-30T04:19:16.215Z,1800.00
2018-06-30T04:20:16.434Z,1820.00
2018-06-30T04:21:16.574Z,1836.00
2018-06-30T04:22:16.740Z,1852.00
2018-06-30T04:23:16.918Z,1868.00
2018-06-30T04:24:17.069Z,1884.00
2018-06-30T04:25:17.174Z,1896.00
2018-06-30T04:26:17.370Z,1912.00
2018-06-30T04:27:17.582Z,1928.00
2018-06-30T04:28:17.768Z,1944.00
2018-06-30T04:29:17.996Z,1956.00
2018-06-30T04:30:18.105Z,1968.00
2018-06-30T04:31:18.342Z,1984.00
2018-06-30T04:32:18.405Z,2000.00
2018-06-30T04:33:18.552Z,2012.00
2018-06-30T04:34:18.758Z,2028.00
2018-06-30T04:35:19.019Z,2040.00
2018-06-30T04:36:19.113Z,2052.00
2018-06-30T04:37:19.338Z,2064.00
2018-06-30T04:38:19.611Z,2076.00
2018-06-30T04:39:19.709Z,2084.00
2018-06-30T04:40:19.914Z,2096.00
2018-06-30T04:41:20.104Z,2108.00
2018-06-30T04:42:20.224Z,2116.00
2018-06-30T04:43:20.402Z,2124.00
2018-06-30T04:44:20.619Z,2128.00
2018-06-30T04:45:20.740Z,2140.00
2018-06-30T04:46:21.001Z,2148.00
2018-06-30T04:47:21.055Z,2156.00
2018-06-30T04:48:21.321Z,2160.00
2018-06-30T04:49:21.455Z,2168.00
2018-06-30T04:50:21.577Z,2176.00
2018-06-30T04:51:22.368Z,2188.00
2018-06-30T04:52:21.921Z,2192.00
2018-06-30T04:53:22.127Z,2204.00
2018-06-30T04:54:22.261Z,2212.00
2018-06-30T04:55:22.436Z,2216.00
2018-06-30T04:56:22.584Z,2228.00
2018-06-30T04:57:22.773Z,2240.00
2018-06-30T04:58:22.973Z,2252.00
2018-06-30T04:59:23.075Z,2260.00
2018-06-30T05:00:23.352Z,2272.00
2018-06-30T05:01:23.493Z,2284.00
2018-06-30T05:02:23.713Z,2296.00
2018-06-30T05:03:23.866Z,2316.00
2018-06-30T05:04:24.037Z,2324.00
2018-06-30T05:05:24.124Z,2344.00
2018-06-30T05:06:24.364Z,2356.00
2018-06-30T05:07:24.571Z,2372.00
2018-06-30T05:08:24.704Z,2392.00
2018-06-30T05:09:24.886Z,2416.00
2018-06-30T05:10:25.035Z,2436.00
2018-06-30T05:11:25.236Z,2464.00
2018-06-30T05:12:25.344Z,2484.00
2018-06-30T05:13:25.516Z,2520.00
2018-06-30T05:14:25.662Z,2556.00
2018-06-30T05:15:25.898Z,2584.00
2018-06-30T05:16:26.064Z,2628.00
2018-06-30T05:17:26.226Z,2672.00
2018-06-30T05:18:26.379Z,2724.00
2018-06-30T05:19:26.521Z,2752.00
2018-06-30T05:20:26.719Z,2804.00
2018-06-30T05:21:26.860Z,2856.00
2018-06-30T05:22:26.986Z,2960.00
2018-06-30T05:23:27.189Z,2964.00
2018-06-30T05:24:27.347Z,2952.00
2018-06-30T05:25:27.477Z,2996.00
2018-06-30T05:26:27.655Z,2968.00
2018-06-30T05:27:27.861Z,3000.00
2018-06-30T05:28:28.028Z,3096.00
2018-06-30T05:29:28.254Z,3104.00
2018-06-30T05:30:28.444Z,3076.00
2018-06-30T05:31:28.560Z,3116.00
2018-06-30T05:32:28.798Z,3048.00
2018-06-30T05:33:28.929Z,3036.00
2018-06-30T05:34:29.069Z,3020.00
2018-06-30T05:35:29.200Z,3000.00
2018-06-30T05:36:29.433Z,2996.00
2018-06-30T05:37:29.567Z,3032.00
2018-06-30T05:38:29.779Z,3064.00
2018-06-30T05:39:29.910Z,3080.00
2018-06-30T05:40:30.111Z,3136.00
2018-06-30T05:41:30.239Z,3124.00
2018-06-30T05:42:30.490Z,3108.00
2018-06-30T05:43:30.673Z,3092.00
2018-06-30T05:44:30.791Z,3100.00
2018-06-30T05:45:31.001Z,3212.00
2018-06-30T05:46:31.173Z,3488.00
2018-06-30T05:47:31.334Z,3456.00
2018-06-30T05:48:31.484Z,3320.00
2018-06-30T05:49:31.614Z,3292.00
2018-06-30T05:50:31.825Z,3332.00
2018-06-30T05:51:32.029Z,3528.00
2018-06-30T05:52:32.082Z,3612.00
2018-06-30T05:53:32.279Z,3520.00
2018-06-30T05:54:32.464Z,3476.00
2018-06-30T05:55:32.675Z,3604.00
2018-06-30T05:56:32.818Z,3620.00
2018-06-30T05:57:32.988Z,3440.00
2018-06-30T05:58:33.164Z,3376.00
2018-06-30T05:59:33.321Z,3412.00
2018-06-30T06:00:33.516Z,3480.00
2018-06-30T06:01:33.619Z,3588.00
2018-06-30T06:02:33.842Z,3700.00
2018-06-30T06:03:33.985Z,3824.00
2018-06-30T06:04:34.108Z,3700.00
2018-06-30T06:05:34.372Z,3560.00
2018-06-30T06:06:34.536Z,3700.00
2018-06-30T06:07:34.734Z,3780.00
2018-06-30T06:08:34.917Z,3724.00
2018-06-30T06:09:35.074Z,3660.00
2018-06-30T06:10:35.233Z,3668.00
2018-06-30T06:11:35.450Z,3752.00
2018-06-30T06:12:35.544Z,3832.00
2018-06-30T06:13:35.772Z,3808.00
2018-06-30T06:14:35.933Z,3772.00
2018-06-30T06:15:36.092Z,4088.00
2018-06-30T06:16:36.217Z,4220.00
2018-06-30T06:17:36.349Z,4032.00
2018-06-30T06:18:36.539Z,3856.00
2018-06-30T06:19:36.739Z,3760.00
2018-06-30T06:20:36.942Z,3700.00
2018-06-30T06:21:37.054Z,3680.00
2018-06-30T06:22:37.273Z,3712.00
2018-06-30T06:23:37.387Z,3704.00
2018-06-30T06:24:37.565Z,3752.00
2018-06-30T06:25:37.761Z,3744.00
2018-06-30T06:26:38.386Z,3684.00
2018-06-30T06:27:38.096Z,3696.00
2018-06-30T06:28:38.227Z,3700.00
2018-06-30T06:29:38.422Z,3728.00
2018-06-30T06:30:38.541Z,3776.00
2018-06-30T06:31:38.700Z,3744.00
2018-06-30T06:32:38.917Z,3720.00
2018-06-30T06:33:39.045Z,3712.00
2018-06-30T06:34:39.124Z,3740.00
2018-06-30T06:35:39.314Z,3808.00
2018-06-30T06:36:39.590Z,3924.00
2018-06-30T06:37:39.677Z,3908.00
2018-06-30T06:38:39.900Z,3888.00
2018-06-30T06:39:40.148Z,3896.00
2018-06-30T06:40:40.220Z,3892.00
2018-06-30T06:41:40.454Z,3908.00
2018-06-30T06:42:40.569Z,3884.00
2018-06-30T06:43:40.761Z,3896.00
2018-06-30T06:44:41.021Z,3884.00
2018-06-30T06:45:41.133Z,3836.00
2018-06-30T06:46:41.323Z,3852.00
2018-06-30T06:47:41.427Z,3912.00
2018-06-30T06:48:41.635Z,3936.00
2018-06-30T06:49:41.840Z,3900.00
2018-06-30T06:50:42.014Z,3896.00
2018-06-30T06:51:42.179Z,3924.00
2018-06-30T06:52:42.347Z,3928.00
2018-06-30T06:53:42.563Z,3876.00
2018-06-30T06:54:42.720Z,3936.00
2018-06-30T06:55:42.938Z,3880.00
2018-06-30T06:56:43.022Z,3900.00
2018-06-30T06:57:43.141Z,3908.00
2018-06-30T06:58:43.329Z,3932.00
2018-06-30T06:59:43.542Z,4000.00
2018-06-30T07:00:43.657Z,4056.00
2018-06-30T07:01:43.870Z,3988.00
2018-06-30T07:02:44.015Z,3968.00
2018-06-30T07:03:44.159Z,4000.00
2018-06-30T07:04:44.320Z,4032.00
2018-06-30T07:05:44.492Z,4072.00
2018-06-30T07:06:44.625Z,4112.00
2018-06-30T07:07:44.838Z,4080.00
2018-06-30T07:08:44.941Z,4092.00
2018-06-30T07:09:45.159Z,4132.00
2018-06-30T07:10:45.337Z,4140.00
2018-06-30T07:11:45.501Z,4148.00
2018-06-30T07:12:45.676Z,4180.00
2018-06-30T07:13:45.785Z,4192.00
2018-06-30T07:14:46.011Z,4384.00
2018-06-30T07:15:46.137Z,4480.00
2018-06-30T07:16:46.358Z,4300.00
2018-06-30T07:17:46.570Z,4264.00
2018-06-30T07:18:46.751Z,4240.00
2018-06-30T07:19:46.897Z,4208.00
2018-06-30T07:20:47.020Z,4188.00
2018-06-30T07:21:47.207Z,4208.00
2018-06-30T07:22:47.381Z,4212.00
2018-06-30T07:23:47.568Z,4204.00
2018-06-30T07:24:47.727Z,4260.00
2018-06-30T07:25:47.901Z,4276.00
2018-06-30T07:26:48.008Z,4284.00
2018-06-30T07:27:48.219Z,4308.00
2018-06-30T07:28:48.386Z,4308.00
2018-06-30T07:29:48.500Z,4364.00
2018-06-30T07:30:48.787Z,4384.00
2018-06-30T07:31:48.872Z,4424.00
2018-06-30T07:32:49.118Z,4428.00
2018-06-30T07:33:49.229Z,4476.00
2018-06-30T07:34:49.438Z,4568.00
2018-06-30T07:35:49.591Z,4552.00
2018-06-30T07:36:49.715Z,4536.00
2018-06-30T07:37:49.959Z,4620.00
2018-06-30T07:38:50.118Z,4604.00
2018-06-30T07:39:50.316Z,4656.00
2018-06-30T07:40:50.447Z,4700.00
2018-06-30T07:41:50.617Z,4780.00
2018-06-30T07:42:50.801Z,4784.00
2018-06-30T07:43:50.902Z,5148.00
2018-06-30T07:44:51.114Z,5144.00
2018-06-30T07:45:51.302Z,5304.00
2018-06-30T07:46:51.427Z,5624.00
2018-06-30T07:47:51.583Z,5260.00
2018-06-30T07:48:51.819Z,5240.00
2018-06-30T07:49:51.945Z,5140.00
2018-06-30T07:50:52.984Z,5548.00
2018-06-30T07:51:52.304Z,5808.00
2018-06-30T07:52:52.427Z,5444.00
2018-06-30T07:53:52.632Z,5428.00
2018-06-30T07:54:52.806Z,5348.00
2018-06-30T07:55:52.999Z,5240.00
2018-06-30T07:56:53.145Z,5304.00
2018-06-30T07:57:53.270Z,5392.00
2018-06-30T07:58:53.451Z,5464.00
2018-06-30T07:59:53.669Z,5492.00
2018-06-30T08:00:53.877Z,5660.00
2018-06-30T08:01:54.018Z,5808.00
2018-06-30T08:02:54.182Z,5860.00
2018-06-30T08:03:54.384Z,4864.00
2018-06-30T08:04:54.553Z,5392.00
2018-06-30T08:05:54.714Z,7340.00
2018-06-30T08:06:54.801Z,7040.00
2018-06-30T08:07:54.969Z,6200.00
2018-06-30T08:08:55.168Z,6260.00
2018-06-30T08:09:55.325Z,6120.00
2018-06-30T08:10:55.522Z,6172.00
2018-06-30T08:11:55.672Z,5500.00
2018-06-30T08:12:55.885Z,6096.00
2018-06-30T08:13:56.054Z,5972.00
2018-06-30T08:14:56.213Z,5776.00
2018-06-30T08:15:56.417Z,5744.00
2018-06-30T08:16:56.786Z,5920.00
2018-06-30T08:17:56.778Z,6012.00
2018-06-30T08:18:56.898Z,6248.00
2018-06-30T08:19:57.118Z,6480.00
2018-06-30T08:20:57.207Z,6788.00
2018-06-30T08:21:57.432Z,6968.00
2018-06-30T08:22:57.531Z,6844.00
2018-06-30T08:23:57.814Z,6816.00
2018-06-30T08:24:57.932Z,6660.00
2018-06-30T08:25:58.304Z,6816.00
2018-06-30T08:26:58.368Z,7688.00
2018-06-30T08:27:58.643Z,7596.00
2018-06-30T08:28:58.706Z,7312.00
2018-06-30T08:29:58.866Z,7104.00
2018-06-30T08:30:59.042Z,7048.00
2018-06-30T08:31:59.170Z,6724.00
2018-06-30T08:32:59.316Z,6428.00
2018-06-30T08:33:59.554Z,6276.00
2018-06-30T08:34:59.921Z,6528.00
2018-06-30T08:37:52.171Z,6688.00
2018-06-30T08:38:45.621Z,6364.00
2018-06-30T08:39:44.019Z,6188.00
2018-06-30T08:40:52.987Z,6112.00
2018-06-30T08:41:44.851Z,6124.00
2018-06-30T08:42:46.547Z,6164.00
2018-06-30T08:43:43.085Z,6228.00
2018-06-30T08:44:43.324Z,6036.00
2018-06-30T08:45:43.447Z,6416.00
2018-06-30T08:46:43.579Z,6288.00
2018-06-30T08:47:43.891Z,6168.00
2018-06-30T08:48:44.128Z,6144.00
2018-06-30T08:49:53.436Z,6180.00
2018-06-30T08:50:45.372Z,6100.00
2018-06-30T08:51:44.591Z,6072.00
2018-06-30T08:52:44.703Z,6144.00
2018-06-30T08:53:44.803Z,6180.00
2018-06-30T08:54:44.964Z,6264.00
2018-06-30T08:55:45.137Z,6228.00
2018-06-30T08:56:46.170Z,6192.00
2018-06-30T08:57:45.471Z,6140.00
2018-06-30T08:58:45.657Z,6120.00
2018-06-30T08:59:45.806Z,6152.00
2018-06-30T09:00:46.611Z,6124.00
2018-06-30T09:01:46.196Z,6132.00
2018-06-30T09:02:46.425Z,6068.00
2018-06-30T09:03:46.538Z,6048.00
2018-06-30T09:04:46.868Z,6024.00
2018-06-30T09:05:46.831Z,6056.00
2018-06-30T09:06:48.706Z,5996.00
2018-06-30T09:07:47.156Z,5952.00
2018-06-30T09:08:47.315Z,5948.00
2018-06-30T09:09:47.595Z,5936.00
2018-06-30T09:10:47.769Z,5896.00
2018-06-30T09:11:48.724Z,5924.00
2018-06-30T09:12:48.192Z,5960.00
2018-06-30T09:13:48.358Z,5956.00
2018-06-30T09:14:48.621Z,5916.00
2018-06-30T09:15:49.248Z,5880.00
2018-06-30T09:16:49.855Z,5836.00
2018-06-30T09:17:50.530Z,5784.00
2018-06-30T09:18:49.172Z,5780.00
2018-06-30T09:19:49.477Z,5776.00
2018-06-30T09:22:36.650Z,5780.00
2018-06-30T09:23:40.810Z,5776.00
2018-06-30T09:24:41.209Z,5768.00
2018-06-30T09:25:39.453Z,5736.00
2018-06-30T09:26:36.366Z,5724.00
2018-06-30T09:27:37.693Z,5740.00
2018-06-30T09:28:38.413Z,5764.00
2018-06-30T09:29:36.562Z,5792.00
2018-06-30T09:30:37.376Z,5760.00
2018-06-30T09:31:37.141Z,5740.00
2018-06-30T09:37:36.894Z,5712.00
2018-06-30T09:41:01.813Z,5728.00
2018-06-30T11:14:54.956Z,54976.00
2018-06-30T11:44:25.048Z,54880.00
2018-06-30T11:59:56.359Z,54528.00
2018-06-30T12:20:34.342Z,60448.00
2018-06-30T12:28:59.278Z,64128.00
2018-06-30T12:32:14.438Z,63360.00
2018-06-30T12:33:31.997Z,65952.00
2018-06-30T12:37:39.496Z,65184.00
2018-06-30T12:57:24.135Z,59200.00
2018-06-30T13:04:30.448Z,62368.00
2018-06-30T13:08:19.012Z,69536.00
2018-06-30T13:11:41.806Z,63520.00
2018-06-30T13:12:43.674Z,63104.00
2018-06-30T13:13:40.682Z,64160.00
2018-06-30T13:17:58.149Z,61120.00
2018-06-30T13:27:48.137Z,71520.00
2018-06-30T14:07:21.449Z,67264.00
2018-06-30T14:08:17.914Z,67648.00
2018-06-30T14:09:29.599Z,67392.00
2018-06-30T14:10:00.928Z,66176.00
2018-06-30T14:11:02.060Z,62944.00
2018-06-30T14:12:01.717Z,60480.00
2018-06-30T14:13:11.225Z,64224.00
2018-06-30T14:14:02.878Z,65952.00
2018-06-30T15:48:31.678Z,40096.00
2018-06-30T16:11:08.233Z,32000.00
2018-06-30T16:13:21.344Z,33696.00
2018-06-30T16:14:34.041Z,34112.00
2018-06-30T16:24:16.343Z,27936.00
2018-06-30T16:46:42.148Z,20672.00
2018-06-30T17:00:48.934Z,3420.00
2018-06-30T17:36:01.789Z,3052.00
2018-06-30T18:01:55.054Z,2688.00
2018-06-30T18:12:36.640Z,2352.00
2018-06-30T18:15:42.168Z,2296.00
2018-06-30T18:19:37.250Z,2232.00
2018-06-30T18:20:37.305Z,2216.00
2018-06-30T18:21:43.390Z,2180.00
2018-06-30T18:22:33.630Z,2136.00
2018-06-30T18:25:50.875Z,2024.00
2018-06-30T18:26:53.073Z,1992.00
2018-06-30T18:27:57.778Z,1972.00
2018-06-30T18:28:57.893Z,1932.00
2018-06-30T18:34:49.892Z,1796.00
2018-06-30T18:39:35.050Z,1680.00
2018-06-30T18:44:45.371Z,1576.00
2018-06-30T18:45:02.605Z,1548.00
2018-06-30T18:45:57.874Z,1528.00
2018-06-30T18:46:57.021Z,1504.00
2018-06-30T18:51:08.269Z,1408.00
2018-06-30T18:52:06.478Z,1380.00
2018-06-30T18:53:06.433Z,1352.00
2018-06-30T18:54:13.659Z,1328.00
2018-06-30T19:00:04.588Z,1176.00
2018-06-30T19:07:15.772Z,988.00
2018-06-30T19:33:47.693Z,304.00
2018-06-30T19:34:45.018Z,288.00
2018-06-30T19:35:50.954Z,268.00
2018-06-30T19:37:58.996Z,232.00
2018-06-30T19:51:36.786Z,68.00
2018-06-30T19:52:41.148Z,60.00
2018-06-30T19:53:43.287Z,52.00
2018-06-30T20:01:49.390Z,20.00
2018-06-30T20:02:51.528Z,20.00
2018-06-30T20:03:49.527Z,12.00
2018-06-30T20:08:42.258Z,8.00
2018-06-30T20:09:42.494Z,4.00
2018-06-30T20:10:43.599Z,4.00
2018-06-30T20:11:40.441Z,4.00
2018-06-30T20:12:40.598Z,8.00
2018-06-30T20:13:40.714Z,4.00
2018-06-30T20:14:40.968Z,4.00
2018-06-30T20:15:41.122Z,4.00
2018-06-30T20:16:41.660Z,0.00
2018-06-30T20:17:41.547Z,4.00
2018-06-30T20:18:41.731Z,4.00
2018-06-30T20:19:41.921Z,0.00
2018-06-30T20:20:42.051Z,0.00
2018-06-30T20:21:42.295Z,4.00
2018-06-30T20:22:42.782Z,4.00
2018-06-30T20:23:43.231Z,0.00
2018-06-30T20:24:42.845Z,0.00
2018-06-30T20:25:42.942Z,0.00
2018-06-30T20:26:43.309Z,0.00
2018-06-30T20:27:43.430Z,0.00
2018-06-30T20:28:43.658Z,0.00
2018-06-30T20:29:43.870Z,0.00
2018-06-30T20:30:43.875Z,0.00
2018-06-30T20:31:44.119Z,0.00
2018-06-30T20:32:44.392Z,0.00
2018-06-30T20:33:44.341Z,0.00
2018-06-30T20:34:44.655Z,0.00
2018-06-30T20:35:44.707Z,0.00
2018-06-30T20:36:44.823Z,0.00
2018-06-30T20:37:45.088Z,0.00
2018-06-30T20:38:45.216Z,0.00
2018-06-30T20:39:45.342Z,0.00
2018-06-30T20:40:45.411Z,0.00
2018-06-30T20:41:45.632Z,0.00
2018-06-30T20:42:45.895Z,0.00
2018-06-30T20:43:46.107Z,0.00
2018-06-30T20:44:46.343Z,0.00
2018-06-30T20:45:46.407Z,0.00
2018-06-30T20:46:46.746Z,0.00
2018-06-30T20:47:46.866Z,0.00
2018-06-30T20:48:46.965Z,0.00
2018-06-30T20:49:47.141Z,0.00
2018-06-30T20:50:47.465Z,0.00
2018-06-30T20:51:47.535Z,0.00
2018-06-30T20:52:47.781Z,0.00
2018-06-30T20:53:48.018Z,0.00
2018-06-30T20:54:48.102Z,0.00
2018-06-30T20:55:48.380Z,0.00
2018-06-30T20:56:48.421Z,0.00
2018-06-30T20:57:48.675Z,0.00
2018-06-30T20:58:48.812Z,0.00
2018-06-30T20:59:49.059Z,0.00
2018-06-30T21:00:49.228Z,0.00
2018-06-30T21:01:49.300Z,0.00
2018-06-30T21:02:49.508Z,0.00
2018-06-30T21:03:49.625Z,0.00
2018-06-30T21:04:49.846Z,0.00
2018-06-30T21:05:50.030Z,0.00
2018-06-30T21:06:50.130Z,0.00
2018-06-30T21:07:50.298Z,0.00
2018-06-30T21:08:50.594Z,0.00
2018-06-30T21:09:50.732Z,0.00
2018-06-30T21:10:50.809Z,0.00
2018-06-30T21:11:51.196Z,0.00
2018-06-30T21:12:51.223Z,0.00
2018-06-30T21:13:51.517Z,0.00
2018-06-30T21:14:51.717Z,0.00
2018-06-30T21:15:51.754Z,0.00
2018-06-30T21:16:51.897Z,0.00
2018-06-30T21:17:52.180Z,0.00
2018-06-30T21:18:52.327Z,0.00
2018-06-30T21:19:52.419Z,0.00
2018-06-30T21:20:52.732Z,0.00
2018-06-30T21:21:52.834Z,0.00
2018-06-30T21:22:53.035Z,0.00
2018-06-30T21:23:53.382Z,0.00
2018-06-30T21:24:54.665Z,0.00
2018-06-30T21:25:53.643Z,0.00
2018-06-30T21:26:53.787Z,0.00
2018-06-30T21:27:54.074Z,0.00
2018-06-30T21:28:54.227Z,0.00
2018-06-30T21:29:54.449Z,0.00
2018-06-30T21:30:54.640Z,0.00
2018-06-30T21:31:54.733Z,0.00
2018-06-30T21:32:54.927Z,0.00
2018-06-30T21:33:55.106Z,0.00
2018-06-30T21:34:55.238Z,0.00
2018-06-30T21:35:55.435Z,0.00
2018-06-30T21:36:55.611Z,0.00
2018-06-30T21:37:55.695Z,0.00
2018-06-30T21:38:55.959Z,0.00
2018-06-30T21:39:56.117Z,0.00
2018-06-30T21:40:56.208Z,0.00
2018-06-30T21:41:56.417Z,0.00
2018-06-30T21:42:56.651Z,0.00
2018-06-30T21:43:56.761Z,0.00
2018-06-30T21:44:56.941Z,0.00
2018-06-30T21:45:57.099Z,0.00
2018-06-30T21:46:57.247Z,0.00
2018-06-30T21:47:57.450Z,0.00
2018-06-30T21:48:57.643Z,0.00
2018-06-30T21:49:57.977Z,0.00
